Time;durP1;ratioP1;P1;durP2;ratioP2;P2;SDS_P1;SDS_P2;PMS_P1;PMS_P2;Temp;Humidity;BMP_temperature;BMP_pressure;BME280_temperature;BME280_humidity;BME280_pressure;Samples;Min_cycle;Max_cycle;Signal;HPM_P1;HPM_P2
2023/01/13 00:02:24;;;;;;;0.00;0.00;;;;;;;5.30;100.00;99272.50;6183484;23;20079;-74
2023/01/13 00:04:51;;;;;;;0.00;0.00;;;;;;;5.26;100.00;99253.22;6203939;23;20047;-74
2023/01/13 00:07:16;;;;;;;0.00;0.00;;;;;;;5.31;100.00;99255.97;6157987;23;20443;-77
2023/01/13 00:09:42;;;;;;;0.00;0.00;;;;;;;5.32;100.00;99257.59;6181421;23;20021;-74
2023/01/13 00:12:07;;;;;;;0.00;0.00;;;;;;;5.33;100.00;99261.97;6180112;23;20012;-75
2023/01/13 00:14:34;;;;;;;0.00;0.00;;;;;;;5.32;100.00;99252.19;6159253;23;20071;-75
2023/01/13 00:17:00;;;;;;;0.00;0.00;;;;;;;5.30;100.00;99259.78;6203770;23;20104;-76
2023/01/13 00:19:25;;;;;;;0.00;0.00;;;;;;;5.22;100.00;99252.13;6209945;23;20397;-75
2023/01/13 00:21:50;;;;;;;0.00;0.00;;;;;;;5.25;100.00;99246.16;6179852;23;20092;-74
2023/01/13 00:24:16;;;;;;;0.00;0.00;;;;;;;5.24;100.00;99255.38;6183289;23;20041;-75
2023/01/13 00:26:41;;;;;;;0.00;0.00;;;;;;;5.28;100.00;99245.66;6182975;23;20009;-77
2023/01/13 00:29:07;;;;;;;0.00;0.00;;;;;;;5.35;100.00;99250.84;6205561;23;20000;-75
2023/01/13 00:31:32;;;;;;;0.00;0.00;;;;;;;5.32;100.00;99246.75;6207073;23;20614;-76
2023/01/13 00:33:59;;;;;;;0.00;0.00;;;;;;;5.26;100.00;99247.81;6182351;23;20082;-75
2023/01/13 00:36:25;;;;;;;0.00;0.00;;;;;;;5.20;100.00;99238.00;6209203;23;20031;-75
2023/01/13 00:38:51;;;;;;;0.00;0.00;;;;;;;5.16;100.00;99242.31;6179677;23;20015;-75
2023/01/13 00:41:21;;;;;;;0.10;0.10;;;;;;;5.20;100.00;99262.41;6184523;23;20087;-76
2023/01/13 00:43:48;;;;;;;0.00;0.00;;;;;;;5.20;100.00;99232.59;6208246;23;20031;-75
2023/01/13 00:46:16;;;;;;;0.00;0.00;;;;;;;5.20;100.00;99227.19;6208118;23;20013;-76
2023/01/13 00:48:42;;;;;;;0.00;0.00;;;;;;;5.21;100.00;99224.19;6209453;23;20012;-75
2023/01/13 00:51:14;;;;;;;0.00;0.00;;;;;;;5.30;100.00;99234.53;6206453;23;20001;-75
2023/01/13 00:53:44;;;;;;;0.00;0.00;;;;;;;5.40;100.00;99251.72;6209810;23;20001;-75
2023/01/13 00:56:19;;;;;;;0.00;0.00;;;;;;;5.47;100.00;99253.38;6206080;23;20012;-77
2023/01/13 00:58:45;;;;;;;0.00;0.00;;;;;;;5.32;100.00;99230.50;6211644;23;20043;-76
2023/01/13 01:01:21;;;;;;;0.00;0.00;;;;;;;5.43;100.00;99253.06;6204917;23;20071;-75
2023/01/13 01:03:47;;;;;;;0.00;0.00;;;;;;;5.38;100.00;99245.72;6208390;23;20009;-75
2023/01/13 01:06:16;;;;;;;0.00;0.00;;;;;;;5.23;100.00;99249.13;6153663;23;20023;-76
2023/01/13 01:08:42;;;;;;;0.00;0.00;;;;;;;5.13;100.00;99234.72;6208946;23;20031;-75
2023/01/13 01:11:29;;;;;;;0.00;0.00;;;;;;;5.14;100.00;99239.03;6207567;23;20009;-75
2023/01/13 01:13:57;;;;;;;0.00;0.00;;;;;;;5.14;100.00;99239.03;6207017;23;20380;-75
2023/01/13 01:16:24;;;;;;;0.00;0.00;;;;;;;5.09;100.00;99236.28;6208383;23;20007;-75
2023/01/13 01:18:51;;;;;;;0.10;0.10;;;;;;;5.00;100.00;99219.69;6203938;23;20005;-74
2023/01/13 01:21:17;;;;;;;0.00;0.00;;;;;;;5.03;100.00;99236.25;6207514;23;20031;-74
2023/01/13 01:23:43;;;;;;;0.00;0.00;;;;;;;5.06;100.00;99216.75;6154569;23;20891;-74
2023/01/13 01:26:12;;;;;;;0.00;0.00;;;;;;;5.09;100.00;99214.63;6207917;23;20005;-75
2023/01/13 01:28:38;;;;;;;0.00;0.00;;;;;;;5.07;100.00;99221.09;6205127;23;20005;-76
2023/01/13 01:31:14;;;;;;;0.10;0.10;;;;;;;5.06;100.00;99211.34;6207448;23;20687;-74
2023/01/13 01:33:40;;;;;;;0.00;0.00;;;;;;;5.11;100.00;99224.13;6204803;23;20075;-75
2023/01/13 01:36:06;;;;;;;0.10;0.10;;;;;;;5.11;100.00;99217.88;6209615;23;20071;-75
2023/01/13 01:38:31;;;;;;;0.00;0.00;;;;;;;5.13;100.00;99229.28;6184806;23;20019;-75
2023/01/13 01:40:57;;;;;;;0.00;0.00;;;;;;;5.09;100.00;99231.69;6180073;23;20020;-75
2023/01/13 01:43:58;;;;;;;0.00;0.00;;;;;;;5.10;100.00;99238.75;6208929;23;20005;-75
2023/01/13 01:46:32;;;;;;;0.00;0.00;;;;;;;5.18;100.00;99235.56;6210066;23;20028;-74
2023/01/13 01:49:16;;;;;;;0.00;0.00;;;;;;;5.14;100.00;99249.88;6206028;23;20009;-74
2023/01/13 01:51:50;;;;;;;0.00;0.00;;;;;;;5.10;100.00;99230.63;6209091;23;20001;-76
2023/01/13 01:54:20;;;;;;;0.00;0.00;;;;;;;5.13;100.00;99259.09;6204180;23;20384;-75
2023/01/13 01:56:47;;;;;;;0.00;0.00;;;;;;;5.11;100.00;99250.38;6210552;23;20416;-75
2023/01/13 01:59:13;;;;;;;0.00;0.00;;;;;;;5.09;100.00;99258.78;6205157;23;20035;-75
2023/01/13 02:01:40;;;;;;;0.10;0.10;;;;;;;5.05;100.00;99249.53;6208601;23;20004;-74
2023/01/13 02:04:14;;;;;;;0.00;0.00;;;;;;;5.04;100.00;99253.34;6209956;23;20015;-75
2023/01/13 02:06:42;;;;;;;0.00;0.00;;;;;;;5.02;100.00;99253.59;6208980;23;20087;-76
2023/01/13 02:09:08;;;;;;;0.00;0.00;;;;;;;5.03;100.00;99249.78;6205990;23;20011;-75
2023/01/13 02:14:24;;;;;;;0.00;0.00;;;;;;;5.02;100.00;99258.19;6183461;23;20016;-75
2023/01/13 02:17:11;;;;;;;0.00;0.00;;;;;;;5.02;100.00;99269.84;6177756;23;20009;-75
2023/01/13 02:19:55;;;;;;;0.00;0.00;;;;;;;5.01;100.00;99273.63;6208982;23;20031;-75
2023/01/13 02:22:51;;;;;;;0.08;0.08;;;;;;;5.01;100.00;99267.41;6207411;23;20000;-74
2023/01/13 02:25:50;;;;;;;0.00;0.00;;;;;;;4.92;100.00;99264.34;6204876;23;20036;-74
2023/01/13 02:28:35;;;;;;;0.10;0.10;;;;;;;4.95;100.00;99254.84;6211227;23;20360;-76
2023/01/13 02:34:08;;;;;;;0.00;0.00;;;;;;;4.92;100.00;99253.50;6208273;23;20016;-76
2023/01/13 02:36:57;;;;;;;0.00;0.00;;;;;;;4.94;100.00;99262.19;6210375;23;20000;-76
2023/01/13 02:39:35;;;;;;;0.00;0.00;;;;;;;4.96;100.00;99254.59;6206679;23;20007;-74
2023/01/13 02:45:09;;;;;;;0.00;0.00;;;;;;;4.97;100.00;99252.72;6211830;23;20028;-75
2023/01/13 02:47:38;;;;;;;0.00;0.00;;;;;;;4.97;100.00;99256.25;6204611;23;20004;-75
2023/01/13 02:50:12;;;;;;;0.00;0.00;;;;;;;4.98;100.00;99262.47;6211265;23;20004;-76
2023/01/13 02:52:56;;;;;;;0.00;0.00;;;;;;;4.99;100.00;99262.22;6204225;23;20004;-75
2023/01/13 02:55:27;;;;;;;0.00;0.00;;;;;;;5.04;100.00;99267.69;6209406;23;20015;-75
2023/01/13 02:57:57;;;;;;;0.00;0.00;;;;;;;5.14;100.00;99260.72;6204391;23;20087;-74
2023/01/13 03:00:23;;;;;;;0.00;0.00;;;;;;;5.26;100.00;99269.50;6210539;23;20032;-76
2023/01/13 03:02:48;;;;;;;0.00;0.00;;;;;;;5.41;100.00;99277.72;6179504;23;20474;-74
2023/01/13 03:05:16;;;;;;;0.10;0.10;;;;;;;5.38;100.00;99266.59;6184587;23;20051;-75
2023/01/13 03:08:03;;;;;;;0.00;0.00;;;;;;;5.34;100.00;99271.72;6206558;23;20090;-76
2023/01/13 03:11:02;;;;;;;0.00;0.00;;;;;;;5.29;100.00;99281.72;6209370;23;20038;-75
2023/01/13 03:13:49;;;;;;;0.00;0.00;;;;;;;5.28;100.00;99286.31;6180152;23;20009;-76
2023/01/13 03:16:54;;;;;;;0.00;0.00;;;;;;;5.25;100.00;99279.50;6209845;23;20128;-75
2023/01/13 03:19:20;;;;;;;0.00;0.00;;;;;;;5.26;100.00;99280.34;6208914;23;20058;-75
2023/01/13 03:22:26;;;;;;;0.00;0.00;;;;;;;5.23;100.00;99287.09;6204575;23;20004;-75
2023/01/13 03:25:08;;;;;;;0.00;0.00;;;;;;;5.20;100.00;99275.97;6210892;23;20375;-76
2023/01/13 03:27:49;;;;;;;0.00;0.00;;;;;;;5.22;100.00;99274.59;6210366;23;20027;-75
2023/01/13 03:30:20;;;;;;;0.00;0.00;;;;;;;5.14;100.00;99280.53;6205873;23;20000;-76
2023/01/13 03:32:49;;;;;;;0.10;0.10;;;;;;;5.13;100.00;99286.19;6211414;23;20027;-76
2023/01/13 03:35:21;;;;;;;0.00;0.00;;;;;;;5.13;100.00;99287.00;6211838;23;20357;-75
2023/01/13 03:37:55;;;;;;;0.10;0.10;;;;;;;5.10;100.00;99281.28;6211147;23;20009;-75
2023/01/13 03:40:28;;;;;;;0.00;0.00;;;;;;;5.03;100.00;99290.44;6210612;23;20011;-75
2023/01/13 03:45:49;;;;;;;0.00;0.00;;;;;;;5.02;100.00;99275.28;6205087;23;20011;-76
2023/01/13 03:48:19;;;;;;;0.00;0.00;;;;;;;5.03;100.00;99287.72;6209061;23;20067;-75
2023/01/13 03:50:55;;;;;;;0.00;0.00;;;;;;;5.04;100.00;99300.19;6209133;23;20423;-75
2023/01/13 03:53:31;;;;;;;0.00;0.00;;;;;;;5.05;100.00;99290.19;6209005;23;20028;-75
2023/01/13 03:56:06;;;;;;;0.00;0.00;;;;;;;5.16;100.00;99299.22;6207957;23;20031;-75
2023/01/13 03:58:40;;;;;;;0.10;0.10;;;;;;;5.28;100.00;99294.44;6212616;23;20035;-76
2023/01/13 04:01:20;;;;;;;0.00;0.00;;;;;;;5.38;100.00;99289.09;6207125;23;20080;-77
2023/01/13 04:04:12;;;;;;;0.00;0.00;;;;;;;5.55;100.00;99315.28;6208402;23;20016;-77
2023/01/13 04:06:46;;;;;;;0.00;0.00;;;;;;;5.60;100.00;99318.00;6209734;23;20017;-77
2023/01/13 04:09:23;;;;;;;0.00;0.00;;;;;;;5.71;100.00;99325.16;6208240;23;20004;-76
2023/01/13 04:12:13;;;;;;;0.00;0.00;;;;;;;5.65;100.00;99318.06;6212053;23;20391;-77
2023/01/13 04:14:40;;;;;;;0.10;0.10;;;;;;;5.71;100.00;99314.28;6204801;23;20050;-77
2023/01/13 04:17:05;;;;;;;0.00;0.00;;;;;;;5.82;100.00;99325.22;6185267;23;20091;-76
2023/01/13 04:19:31;;;;;;;0.00;0.00;;;;;;;5.84;100.00;99328.47;6184669;23;20028;-77
2023/01/13 04:21:58;;;;;;;0.00;0.00;;;;;;;5.80;100.00;99328.19;6185488;23;20005;-76
2023/01/13 04:24:24;;;;;;;0.00;0.00;;;;;;;5.63;100.00;99350.03;6156986;23;20004;-76
2023/01/13 04:26:49;;;;;;;0.00;0.00;;;;;;;5.52;100.00;99326.63;6210747;23;20032;-76
2023/01/13 04:29:15;;;;;;;0.00;0.00;;;;;;;5.47;100.00;99353.69;6206345;23;20000;-78
2023/01/13 04:31:41;;;;;;;0.00;0.00;;;;;;;5.59;100.00;99349.75;6210873;23;20019;-77
2023/01/13 04:34:07;;;;;;;0.00;0.00;;;;;;;5.70;100.00;99347.91;6207795;23;20008;-76
2023/01/13 04:36:34;;;;;;;0.00;0.00;;;;;;;5.54;100.00;99330.72;6208583;23;20005;-77
2023/01/13 04:39:01;;;;;;;0.00;0.00;;;;;;;5.33;100.00;99340.59;6160782;23;20012;-77
2023/01/13 04:41:27;;;;;;;0.00;0.00;;;;;;;5.25;100.00;99327.47;6205280;23;20483;-77
2023/01/13 04:43:52;;;;;;;0.00;0.00;;;;;;;5.21;100.00;99334.50;6210207;23;20032;-77
2023/01/13 04:46:17;;;;;;;0.10;0.10;;;;;;;5.12;100.00;99344.16;6204517;23;20031;-75
2023/01/13 04:48:43;;;;;;;0.00;0.00;;;;;;;5.01;100.00;99354.91;6183436;23;20478;-78
2023/01/13 04:51:08;;;;;;;0.03;0.03;;;;;;;4.76;100.00;99349.22;6157428;23;20009;-78
2023/01/13 04:53:34;;;;;;;0.00;0.00;;;;;;;4.67;100.00;99356.97;6209334;23;20016;-79
2023/01/13 04:55:59;;;;;;;0.00;0.00;;;;;;;4.54;100.00;99379.81;6187015;23;20028;-79
2023/01/13 04:58:24;;;;;;;0.00;0.00;;;;;;;4.37;100.00;99372.59;6184051;23;20007;-78
2023/01/13 05:00:50;;;;;;;0.00;0.00;;;;;;;4.29;100.00;99375.75;6187452;23;20013;-78
2023/01/13 05:03:26;;;;;;;;;;;;;;;;;;;;;
2023/01/13 05:05:54;;;;;;;0.00;0.00;;;;;;;4.09;100.00;99353.78;6215393;23;20096;-80
2023/01/13 05:08:19;;;;;;;0.00;0.00;;;;;;;4.15;100.00;99377.16;6186305;23;20008;-79
2023/01/13 05:10:49;;;;;;;0.00;0.00;;;;;;;4.11;100.00;99379.53;6186791;23;20088;-79
2023/01/13 05:19:11;;;;;;;0.00;0.00;;;;;;;4.16;100.00;99411.25;6212863;23;20019;-81
2023/01/13 05:27:04;;;;;;;0.00;0.00;;;;;;;4.56;100.00;99412.91;6190059;23;20501;-79
2023/01/13 05:29:30;;;;;;;0.00;0.00;;;;;;;4.72;100.00;99409.31;6212848;23;20246;-80
2023/01/13 05:31:55;;;;;;;0.00;0.00;;;;;;;4.78;100.00;99420.22;6187524;23;20349;-80
2023/01/13 05:34:23;;;;;;;0.00;0.00;;;;;;;4.78;100.00;99420.22;6209983;23;20327;-80
2023/01/13 05:36:50;;;;;;;0.00;0.00;;;;;;;4.71;100.00;99410.38;6188484;23;20035;-78
2023/01/13 05:39:16;;;;;;;0.00;0.00;;;;;;;4.75;100.00;99399.88;6185088;23;20394;-79
2023/01/13 05:44:26;;;;;;;0.10;0.10;;;;;;;4.94;100.00;99419.31;6213443;23;20344;-78
2023/01/13 05:46:51;;;;;;;0.00;0.00;;;;;;;5.00;100.00;99410.16;6193164;23;20001;-78
2023/01/13 05:49:16;;;;;;;0.10;0.10;;;;;;;5.10;100.00;99423.03;6163969;23;20036;-78
2023/01/13 05:51:42;;;;;;;0.00;0.00;;;;;;;5.00;100.00;99418.28;6214749;23;20008;-78
2023/01/13 05:54:07;;;;;;;0.10;0.10;;;;;;;4.96;100.00;99428.00;6188666;23;20015;-79
2023/01/13 05:56:33;;;;;;;0.10;0.10;;;;;;;5.02;100.00;99440.56;6211309;23;20005;-78
2023/01/13 05:58:59;;;;;;;0.10;0.10;;;;;;;5.03;100.00;99447.59;6188231;23;20012;-78
2023/01/13 06:01:27;;;;;;;0.00;0.00;;;;;;;5.02;100.00;99454.09;6184418;23;20012;-76
2023/01/13 06:03:52;;;;;;;0.10;0.10;;;;;;;5.12;100.00;99453.38;6187237;23;20024;-79
2023/01/13 06:06:20;;;;;;;0.00;0.00;;;;;;;4.97;100.00;99456.75;6153032;23;20156;-80
2023/01/13 06:08:46;;;;;;;0.00;0.00;;;;;;;4.84;100.00;99451.72;6215102;23;20012;-81
2023/01/13 06:11:13;;;;;;;0.00;0.00;;;;;;;4.67;100.00;99460.72;6186665;23;20005;-80
2023/01/13 06:14:09;;;;;;;0.00;0.00;;;;;;;4.70;100.00;99481.88;6216301;23;20446;-82
2023/01/13 06:16:34;;;;;;;0.10;0.10;;;;;;;4.63;100.00;99467.69;6209911;23;20008;-79
2023/01/13 06:19:00;;;;;;;0.00;0.00;;;;;;;4.67;100.00;99463.44;6164115;23;20019;-82
2023/01/13 06:21:25;;;;;;;0.10;0.10;;;;;;;4.76;100.00;99477.34;6189372;23;20031;-80
2023/01/13 06:23:50;;;;;;;0.00;0.00;;;;;;;5.03;100.00;99482.81;6211785;23;20017;-80
2023/01/13 06:26:22;;;;;;;0.00;0.00;;;;;;;5.22;100.00;99487.94;6216140;23;20039;-79
2023/01/13 06:28:48;;;;;;;0.10;0.10;;;;;;;5.35;100.00;99495.66;6211343;23;20008;-79
2023/01/13 06:31:14;;;;;;;0.10;0.10;;;;;;;5.35;100.00;99487.53;6213522;23;20009;-80
2023/01/13 06:36:48;;;;;;;0.00;0.00;;;;;;;5.37;100.00;99488.13;6209724;23;19997;-81
2023/01/13 06:39:17;;;;;;;0.00;0.00;;;;;;;5.29;100.00;99501.31;6211149;23;20079;-80
2023/01/13 06:44:28;;;;;;;0.00;0.00;;;;;;;5.17;100.00;99509.53;6210976;23;20403;-79
2023/01/13 06:46:53;;;;;;;0.00;0.00;;;;;;;5.05;100.00;99494.25;6214793;23;20012;-79
2023/01/13 06:49:19;;;;;;;0.00;0.00;;;;;;;5.03;100.00;99526.19;6184238;23;20062;-79
2023/01/13 06:51:51;;;;;;;0.00;0.00;;;;;;;4.97;100.00;99513.66;6187112;23;20009;-80
2023/01/13 06:54:17;;;;;;;0.00;0.00;;;;;;;5.10;100.00;99536.03;6210126;23;20135;-80
2023/01/13 06:56:45;;;;;;;0.00;0.00;;;;;;;5.09;100.00;99535.19;6211974;23;20081;-80
2023/01/13 06:59:10;;;;;;;0.08;0.08;;;;;;;5.22;100.00;99550.28;6212503;23;20004;-80
2023/01/13 07:01:36;;;;;;;0.00;0.00;;;;;;;5.31;100.00;99559.59;6180934;23;20100;-78
2023/01/13 07:04:01;;;;;;;0.00;0.00;;;;;;;5.41;100.00;99554.28;6164135;23;20028;-78
2023/01/13 07:06:27;;;;;;;0.10;0.10;;;;;;;5.55;100.00;99560.16;6206539;23;20443;-79
2023/01/13 07:08:53;;;;;;;0.00;0.00;;;;;;;5.60;100.00;99551.25;6212359;23;20008;-77
2023/01/13 07:11:21;;;;;;;0.00;0.00;;;;;;;5.71;100.00;99569.28;6207662;23;20086;-79
2023/01/13 07:16:48;;;;;;;0.10;0.10;;;;;;;5.71;100.00;99574.72;6192170;23;20043;-83
2023/01/13 07:19:14;;;;;;;0.10;0.10;;;;;;;5.70;100.00;99573.06;6209967;23;20004;-81
2023/01/13 07:21:40;;;;;;;0.00;0.00;;;;;;;5.71;100.00;99580.13;6186668;23;20452;-78
2023/01/13 07:24:05;;;;;;;0.00;0.00;;;;;;;5.84;100.00;99588.94;6157851;23;20015;-78
2023/01/13 07:26:31;;;;;;;0.10;0.10;;;;;;;5.76;100.00;99601.06;6186514;23;20055;-79
2023/01/13 07:28:57;;;;;;;0.00;0.00;;;;;;;5.64;100.00;99584.13;6206775;23;20019;-81
2023/01/13 07:31:37;;;;;;;;;;;;;;;;;;;;;
2023/01/13 07:34:04;;;;;;;0.10;0.10;;;;;;;5.74;100.00;99601.34;6185854;23;20084;-79
2023/01/13 07:36:40;;;;;;;;;;;;;;;;;;;;;
2023/01/13 07:39:08;;;;;;;0.00;0.00;;;;;;;5.66;100.00;99604.47;6185667;23;20291;-79
2023/01/13 07:44:33;;;;;;;;;;;;;;;;;;;;;
2023/01/13 07:47:04;;;;;;;0.00;0.00;;;;;;;6.05;100.00;99647.00;6213883;23;20500;-81
2023/01/13 07:49:30;;;;;;;0.00;0.00;;;;;;;5.90;100.00;99636.78;6206936;23;20009;-79
2023/01/13 07:51:56;;;;;;;0.00;0.00;;;;;;;5.87;100.00;99637.28;6212987;23;20371;-78
2023/01/13 07:54:21;;;;;;;0.00;0.00;;;;;;;5.85;100.00;99642.13;6182442;23;20008;-81
2023/01/13 07:56:47;;;;;;;0.03;0.03;;;;;;;5.97;100.00;99653.69;6185900;23;20008;-79
2023/01/13 07:59:12;;;;;;;0.00;0.00;;;;;;;5.95;100.00;99655.81;6162270;23;20096;-78
2023/01/13 08:01:37;;;;;;;0.00;0.00;;;;;;;5.81;100.00;99671.69;6157203;23;20510;-77
2023/01/13 08:04:05;;;;;;;0.00;0.00;;;;;;;5.54;100.00;99661.56;6210878;23;20367;-81
2023/01/13 08:06:31;;;;;;;0.10;0.10;;;;;;;5.32;100.00;99668.88;6185259;23;20092;-78
2023/01/13 08:08:58;;;;;;;0.00;0.00;;;;;;;5.11;100.00;99670.44;6205700;23;20009;-79
2023/01/13 08:11:26;;;;;;;0.00;0.00;;;;;;;5.06;100.00;99672.00;6183531;23;20035;-78
2023/01/13 08:13:56;;;;;;;0.00;0.00;;;;;;;5.05;100.00;99674.97;6184314;23;20016;-80
2023/01/13 08:16:22;;;;;;;0.00;0.00;;;;;;;5.01;100.00;99680.06;6186693;23;20058;-80
2023/01/13 08:18:48;;;;;;;0.00;0.00;;;;;;;4.96;100.00;99677.28;6206478;23;20020;-81
2023/01/13 08:21:16;;;;;;;0.00;0.00;;;;;;;4.99;100.00;99668.66;6210475;23;20305;-81
2023/01/13 08:23:44;;;;;;;0.10;0.10;;;;;;;5.32;100.00;99688.66;6182048;23;20001;-80
2023/01/13 08:26:15;;;;;;;0.00;0.00;;;;;;;5.47;100.00;99692.66;6185423;23;20029;-81
2023/01/13 08:28:41;;;;;;;0.00;0.00;;;;;;;5.56;100.00;99707.44;6209291;23;20047;-80
2023/01/13 08:31:14;;;;;;;0.00;0.00;;;;;;;5.65;100.00;99689.66;6184971;23;20690;-80
2023/01/13 08:33:40;;;;;;;0.00;0.00;;;;;;;5.84;100.00;99703.75;6210997;23;20059;-81
2023/01/13 08:36:11;;;;;;;0.00;0.00;;;;;;;5.95;100.00;99710.09;6181576;23;20013;-80
2023/01/13 08:38:36;;;;;;;0.10;0.10;;;;;;;6.00;100.00;99728.38;6211692;23;20115;-80
2023/01/13 08:41:13;;;;;;;0.00;0.00;;;;;;;6.01;100.00;99721.88;6182591;23;20596;-80
2023/01/13 08:43:42;;;;;;;0.10;0.10;;;;;;;6.09;100.00;99721.44;6206277;23;20434;-79
2023/01/13 08:46:07;;;;;;;0.00;0.00;;;;;;;6.07;100.00;99724.38;6209642;23;20079;-80
2023/01/13 08:48:44;;;;;;;0.00;0.00;;;;;;;6.01;100.00;99719.16;6209970;23;20611;-80
2023/01/13 08:51:10;;;;;;;0.00;0.00;;;;;;;6.09;100.00;99743.97;6207460;23;20444;-80
2023/01/13 08:53:49;;;;;;;0.00;0.00;;;;;;;6.01;100.00;99719.97;6206639;23;20009;-80
2023/01/13 08:56:30;;;;;;;;;;;;;;;;;;;;;
2023/01/13 08:59:31;;;;;;;0.10;0.10;;;;;;;6.43;100.00;99751.94;6214886;23;20095;-79
2023/01/13 09:05:55;;;;;;;0.00;0.00;;;;;;;6.94;100.00;99762.50;6201723;23;20602;-78
2023/01/13 09:09:24;;;;;;;;;;;;;;;;;;;;;
2023/01/13 09:19:21;;;;;;;0.00;0.00;;;;;;;7.58;100.00;99800.81;6123418;23;20096;-79
2023/01/13 09:22:06;;;;;;;0.00;0.00;;;;;;;7.85;100.00;99827.94;6096054;23;20020;-78
2023/01/13 09:25:21;;;;;;;0.00;0.00;;;;;;;7.82;100.00;99807.50;6152674;23;20005;-80
2023/01/13 09:27:49;;;;;;;0.00;0.00;;;;;;;7.91;100.00;99816.00;6147282;23;20008;-80
2023/01/13 09:30:39;;;;;;;0.00;0.00;;;;;;;7.76;100.00;99803.13;6129118;23;20013;-79
2023/01/13 09:35:49;;;;;;;0.00;0.00;;;;;;;8.38;100.00;99833.38;6145777;23;21016;-79
2023/01/13 09:38:14;;;;;;;0.00;0.00;;;;;;;8.51;100.00;99802.97;6127218;23;20005;-80
2023/01/13 09:40:45;;;;;;;0.00;0.00;;;;;;;10.17;100.00;99818.25;6122022;23;20092;-81
2023/01/13 09:44:28;;;;;;;;;;;;;;;;;;;;;
2023/01/13 09:54:24;;;;;;;0.00;0.00;;;;;;;15.24;89.57;99857.00;6084800;23;20008;-82
2023/01/13 10:01:32;;;;;;;0.00;0.00;;;;;;;15.97;90.72;99845.06;6110604;23;20016;-84
2023/01/13 10:07:58;;;;;;;0.10;0.10;;;;;;;16.58;88.28;99873.72;6168552;22;20202;-81
2023/01/13 10:10:43;;;;;;;0.00;0.00;;;;;;;16.66;84.90;99898.91;6211940;23;20027;-81
2023/01/13 10:13:32;;;;;;;0.00;0.00;;;;;;;15.64;81.21;99879.22;6209217;23;20069;-80
2023/01/13 10:16:45;;;;;;;;;;;;;;;;;;;;;
2023/01/13 10:19:26;;;;;;;0.00;0.00;;;;;;;16.03;87.41;99894.25;6205512;23;20448;-80
2023/01/13 10:25:56;;;;;;;;;;;;;;;;;;;;;
2023/01/13 10:28:52;;;;;;;0.00;0.00;;;;;;;16.84;69.66;99914.41;6180523;23;20402;-80
2023/01/13 10:35:39;;;;;;;0.00;0.00;;;;;;;11.52;85.44;99917.72;6153886;23;20546;-80
2023/01/13 10:38:37;;;;;;;0.00;0.00;;;;;;;10.39;91.83;99930.00;6205595;23;20004;-81
2023/01/13 10:41:15;;;;;;;0.00;0.00;;;;;;;9.99;97.71;99939.03;6194582;23;20543;-80
2023/01/13 10:44:00;;;;;;;0.00;0.00;;;;;;;10.92;97.30;99945.97;6212377;23;19997;-78
2023/01/13 10:49:28;;;;;;;0.00;0.00;;;;;;;15.50;82.43;99953.66;6185000;23;20032;-81
2023/01/13 10:51:53;;;;;;;0.00;0.00;;;;;;;15.02;76.20;99940.41;6214721;23;20090;-80
2023/01/13 10:54:40;;;;;;;0.00;0.00;;;;;;;12.82;77.37;99951.06;6181503;23;20782;-80
2023/01/13 10:57:45;;;;;;;0.00;0.00;;;;;;;10.97;81.86;99951.41;6210170;23;20681;-79
2023/01/13 11:00:35;;;;;;;0.00;0.00;;;;;;;10.09;90.38;99960.88;6197983;23;20008;-79
2023/01/13 11:03:29;;;;;;;;;;;;;;;;;;;;;
2023/01/13 11:06:01;;;;;;;0.00;0.00;;;;;;;10.14;88.50;99969.09;6207688;23;20095;-80
2023/01/13 11:09:01;;;;;;;;;;;;;;;;;;;;;
2023/01/13 11:11:42;;;;;;;0.00;0.00;;;;;;;15.19;86.83;99962.59;6213054;23;20096;-79
2023/01/13 11:14:42;;;;;;;;;;;;;;;;;;;;;
2023/01/13 11:17:46;;;;;;;0.00;0.00;;;;;;;13.63;71.01;99959.34;6209104;23;20083;-78
2023/01/13 11:20:10;;;;;;;0.03;0.03;;;;;;;11.99;83.57;99995.75;6204796;23;20064;-78
2023/01/13 11:22:48;;;;;;;0.00;0.00;;;;;;;11.31;85.48;99972.59;6203271;23;20005;-77
2023/01/13 11:25:42;;;;;;;0.10;0.10;;;;;;;10.80;85.73;99983.75;6209428;23;20047;-79
2023/01/13 11:28:50;;;;;;;0.00;0.00;;;;;;;10.38;89.22;99990.41;6210605;23;19996;-78
2023/01/13 11:31:32;;;;;;;0.00;0.00;;;;;;;11.06;84.59;99983.69;6208086;23;20237;-78
2023/01/13 11:34:20;;;;;;;0.00;0.00;;;;;;;10.22;85.29;100009.53;6210240;23;20066;-79
2023/01/13 11:36:57;;;;;;;0.00;0.00;;;;;;;10.77;85.21;99965.19;6211426;23;20066;-77
2023/01/13 11:40:04;;;;;;;0.00;0.00;;;;;;;11.49;85.75;99982.09;6209207;23;20070;-77
2023/01/13 11:42:52;;;;;;;;;;;;;;;;;;;;;
2023/01/13 11:45:45;;;;;;;0.00;0.00;;;;;;;11.34;83.56;99991.19;6213979;23;20104;-79
2023/01/13 11:48:25;;;;;;;0.00;0.00;;;;;;;12.32;83.86;99982.28;6206856;23;20079;-78
2023/01/13 11:51:13;;;;;;;0.00;0.00;;;;;;;16.14;77.92;99999.59;6210974;23;20015;-80
2023/01/13 11:54:21;;;;;;;0.00;0.00;;;;;;;16.29;70.78;100023.22;6215019;23;20009;-80
2023/01/13 11:57:22;;;;;;;0.00;0.00;;;;;;;13.19;78.77;100009.91;6210702;23;20079;-79
2023/01/13 12:00:07;;;;;;;;;;;;;;;;;;;;;
2023/01/13 12:02:44;;;;;;;0.00;0.00;;;;;;;11.39;84.84;100015.00;6213361;23;20080;-79
2023/01/13 12:05:34;;;;;;;0.00;0.00;;;;;;;11.46;87.74;100009.19;6207008;23;20016;-78
2023/01/13 12:08:22;;;;;;;0.00;0.00;;;;;;;10.91;84.66;100023.66;6210924;23;20512;-77
2023/01/13 12:11:12;;;;;;;0.00;0.00;;;;;;;11.30;89.63;100028.47;6209191;23;20016;-78
2023/01/13 12:13:56;;;;;;;0.00;0.00;;;;;;;13.79;83.05;100023.16;6208688;23;20292;-77
2023/01/13 12:16:29;;;;;;;0.00;0.00;;;;;;;16.67;69.80;100016.47;6213321;23;20008;-78
2023/01/13 12:19:32;;;;;;;0.10;0.10;;;;;;;16.63;64.40;100043.09;6183025;23;19996;-78
2023/01/13 12:22:21;;;;;;;0.00;0.00;;;;;;;15.98;66.04;100042.47;6212281;23;20044;-80
2023/01/13 12:25:43;;;;;;;;;;;;;;;;;;;;;
2023/01/13 12:32:04;;;;;;;0.00;0.00;;;;;;;15.45;80.33;100025.44;6151240;23;20032;-79
2023/01/13 12:38:10;;;;;;;0.00;0.00;;;;;;;15.54;68.17;100031.03;6179235;23;20008;-78
2023/01/13 12:40:50;;;;;;;0.00;0.00;;;;;;;13.53;71.54;100042.72;6214463;23;20082;-77
2023/01/13 12:46:36;;;;;;;0.00;0.00;;;;;;;10.07;84.63;100039.56;6213056;23;20677;-78
2023/01/13 12:49:04;;;;;;;0.00;0.00;;;;;;;10.01;92.01;100041.47;6189004;23;20004;-79
2023/01/13 12:52:39;;;;;;;0.00;0.00;;;;;;;11.39;90.46;100036.06;6213625;23;20007;-78
2023/01/13 12:55:24;;;;;;;0.00;0.00;;;;;;;15.33;79.70;100064.53;6217718;23;20032;-79
2023/01/13 12:58:26;;;;;;;;;;;;;;;;;;;;;
2023/01/13 13:01:44;;;;;;;;;;;;;;;;;;;;;
2023/01/13 13:15:10;;;;;;;;;;;;;;;;;;;;;
2023/01/13 13:17:41;;;;;;;0.10;0.10;;;;;;;13.98;79.50;100036.06;6120714;23;20085;-79
2023/01/13 13:34:20;;;;;;;0.00;0.00;;;;;;;17.33;69.17;100046.97;6035657;23;20045;-78
2023/01/13 13:37:33;;;;;;;;;;;;;;;;;;;;;
2023/01/13 13:46:48;;;;;;;0.03;0.03;;;;;;;17.37;63.55;100072.03;6189689;23;20044;-78
2023/01/13 13:49:51;;;;;;;;;;;;;;;;;;;;;
2023/01/13 13:52:25;;;;;;;0.00;0.00;;;;;;;17.80;66.71;100077.69;6216530;23;20046;-78
2023/01/13 13:55:00;;;;;;;0.00;0.00;;;;;;;17.66;68.42;100084.47;6211296;23;20358;-78
2023/01/13 13:58:12;;;;;;;0.00;0.00;;;;;;;17.91;68.93;100078.19;6211912;23;20004;-77
2023/01/13 14:00:38;;;;;;;0.00;0.00;;;;;;;17.85;65.00;100082.22;6182283;23;20024;-77
2023/01/13 14:03:18;;;;;;;0.00;0.00;;;;;;;17.73;61.96;100102.22;6184829;23;20499;-78
2023/01/13 14:06:04;;;;;;;0.00;0.00;;;;;;;17.49;66.57;100105.41;6211241;23;20435;-78
2023/01/13 14:08:43;;;;;;;0.00;0.00;;;;;;;17.78;70.97;100098.47;6208635;23;20016;-77
2023/01/13 14:11:31;;;;;;;0.00;0.00;;;;;;;17.88;65.98;100102.91;6206969;23;20083;-79
2023/01/13 14:14:15;;;;;;;0.00;0.00;;;;;;;17.35;68.95;100085.38;6210185;23;20001;-77
2023/01/13 14:16:53;;;;;;;;;;;;;;;;;;;;;
2023/01/13 14:20:34;;;;;;;0.00;0.00;;;;;;;17.11;70.26;100125.25;6210905;23;20500;-79
2023/01/13 14:23:43;;;;;;;0.00;0.00;;;;;;;17.17;75.40;100096.38;6209838;23;20008;-80
2023/01/13 14:26:17;;;;;;;0.00;0.00;;;;;;;17.50;73.69;100114.53;6181143;23;20005;-82
2023/01/13 14:29:03;;;;;;;0.00;0.00;;;;;;;17.49;69.06;100113.69;6208705;23;20040;-79
2023/01/13 14:32:16;;;;;;;0.00;0.00;;;;;;;16.33;65.14;100111.72;6211313;23;20067;-77
2023/01/13 14:34:44;;;;;;;0.00;0.00;;;;;;;15.21;67.72;100126.75;6210575;23;20038;-79
2023/01/13 14:37:21;;;;;;;0.00;0.00;;;;;;;13.98;76.43;100135.84;6205642;23;20408;-78
2023/01/13 14:40:05;;;;;;;;;;;;;;;;;;;;;
2023/01/13 14:45:23;;;;;;;0.00;0.00;;;;;;;13.38;81.21;100128.88;6185226;23;20009;-78
2023/01/13 14:47:59;;;;;;;0.00;0.00;;;;;;;14.36;74.76;100135.03;6206732;23;20009;-78